createdAt,value
2019-02-23T00:01:49.534Z,7.00
2019-02-23T00:04:21.273Z,7.20
2019-02-23T00:06:53.050Z,7.03
2019-02-23T00:09:24.950Z,6.87
2019-02-23T00:11:56.593Z,6.60
2019-02-23T00:14:28.550Z,8.43
2019-02-23T00:17:00.346Z,7.93
2019-02-23T00:19:32.025Z,7.83
2019-02-23T00:22:03.770Z,8.13
2019-02-23T00:24:35.461Z,8.40
2019-02-23T00:27:07.109Z,8.97
2019-02-23T00:29:38.786Z,8.67
2019-02-23T00:32:10.487Z,11.33
2019-02-23T00:34:42.730Z,8.63
2019-02-23T00:37:14.583Z,9.60
2019-02-23T00:39:46.208Z,10.47
2019-02-23T00:42:17.977Z,10.60
2019-02-23T00:44:49.601Z,14.50
2019-02-23T00:47:21.317Z,9.60
2019-02-23T00:49:52.971Z,9.13
2019-02-23T00:52:27.895Z,11.63
2019-02-23T00:54:59.853Z,10.40
2019-02-23T00:57:31.866Z,12.20
2019-02-23T01:00:03.639Z,14.10
2019-02-23T01:02:35.259Z,12.33
2019-02-23T01:05:07.377Z,9.90
2019-02-23T01:07:39.806Z,11.60
2019-02-23T01:10:13.900Z,12.90
2019-02-23T01:12:45.771Z,13.57
2019-02-23T01:15:19.348Z,9.80
2019-02-23T01:17:52.881Z,11.90
2019-02-23T01:20:24.662Z,10.67
2019-02-23T01:22:56.585Z,12.67
2019-02-23T01:25:30.121Z,13.97
2019-02-23T01:28:01.789Z,16.70
2019-02-23T01:30:33.706Z,13.30
2019-02-23T01:33:05.489Z,14.70
2019-02-23T01:35:37.401Z,12.57
2019-02-23T01:38:10.718Z,14.13
2019-02-23T01:40:42.637Z,14.90
2019-02-23T01:43:14.315Z,13.23
2019-02-23T01:45:45.969Z,14.53
2019-02-23T01:48:17.691Z,17.37
2019-02-23T01:50:49.394Z,14.37
2019-02-23T01:53:22.517Z,12.60
2019-02-23T01:55:55.862Z,10.87
2019-02-23T01:58:27.586Z,14.20
2019-02-23T02:00:59.561Z,19.90
2019-02-23T02:03:31.212Z,12.13
2019-02-23T02:06:02.984Z,11.43
2019-02-23T02:08:36.171Z,15.90
2019-02-23T02:11:08.096Z,16.90
2019-02-23T02:13:39.724Z,12.17
2019-02-23T02:16:11.386Z,16.33
2019-02-23T02:18:43.571Z,13.37
2019-02-23T02:21:15.277Z,13.70
2019-02-23T02:23:47.156Z,15.10
2019-02-23T02:26:18.971Z,14.60
2019-02-23T02:28:52.498Z,14.00
2019-02-23T02:31:24.231Z,14.07
2019-02-23T02:34:19.119Z,12.47
2019-02-23T02:36:50.791Z,12.57
2019-02-23T02:39:22.393Z,12.70
2019-02-23T02:41:54.413Z,13.80
2019-02-23T02:44:26.054Z,18.07
2019-02-23T02:46:57.862Z,14.70
2019-02-23T02:49:29.657Z,16.17
2019-02-23T02:52:01.305Z,14.63
2019-02-23T02:54:33.060Z,24.43
2019-02-23T02:57:04.649Z,16.07
2019-02-23T02:59:36.372Z,16.03
2019-02-23T03:02:08.448Z,14.30
2019-02-23T03:04:40.279Z,12.97
2019-02-23T03:07:11.937Z,15.20
2019-02-23T03:09:43.541Z,17.20
2019-02-23T03:12:15.171Z,13.63
2019-02-23T03:14:46.780Z,17.03
2019-02-23T03:17:18.553Z,18.73
2019-02-23T03:19:50.429Z,14.00
2019-02-23T03:22:22.182Z,16.83
2019-02-23T03:24:53.855Z,18.50
2019-02-23T03:27:25.525Z,18.50
2019-02-23T03:29:57.190Z,16.53
2019-02-23T03:32:28.813Z,16.63
2019-02-23T03:35:00.656Z,15.07
2019-02-23T03:37:32.282Z,15.40
2019-02-23T03:40:03.918Z,14.50
2019-02-23T03:42:35.696Z,16.20
2019-02-23T03:45:07.811Z,16.00
2019-02-23T03:47:39.412Z,17.73
2019-02-23T03:50:11.219Z,14.50
2019-02-23T03:52:42.821Z,14.33
2019-02-23T03:55:14.666Z,17.70
2019-02-23T03:57:46.290Z,14.33
2019-02-23T04:00:18.273Z,14.47
2019-02-23T04:02:50.154Z,17.93
2019-02-23T04:05:22.232Z,15.07
2019-02-23T04:07:53.916Z,17.37
2019-02-23T04:10:26.779Z,15.83
2019-02-23T04:12:58.398Z,16.83
2019-02-23T04:15:30.151Z,15.70
2019-02-23T04:18:02.124Z,14.80
2019-02-23T04:20:34.422Z,16.23
2019-02-23T04:23:06.406Z,16.00
2019-02-23T04:25:38.068Z,20.70
2019-02-23T04:28:09.815Z,15.87
2019-02-23T04:30:41.443Z,16.63
2019-02-23T04:33:13.040Z,14.73
2019-02-23T04:35:46.574Z,14.57
2019-02-23T04:38:18.764Z,16.83
2019-02-23T04:40:50.487Z,18.90
2019-02-23T04:43:22.119Z,16.80
2019-02-23T04:45:53.870Z,14.83
2019-02-23T04:48:25.503Z,14.47
2019-02-23T04:50:58.437Z,14.80
2019-02-23T04:53:30.394Z,16.73
2019-02-23T04:56:02.337Z,14.77
2019-02-23T04:58:34.040Z,17.80
2019-02-23T05:01:05.755Z,16.33
2019-02-23T05:03:37.342Z,19.77
2019-02-23T05:06:08.993Z,18.50
2019-02-23T05:08:41.024Z,18.00
2019-02-23T05:11:12.682Z,14.27
2019-02-23T05:13:44.451Z,17.90
2019-02-23T05:16:16.100Z,15.57
2019-02-23T05:18:47.887Z,18.00
2019-02-23T05:21:26.371Z,19.63
2019-02-23T05:23:55.076Z,16.90
2019-02-23T05:26:26.978Z,15.57
2019-02-23T05:28:58.591Z,15.47
2019-02-23T05:31:30.869Z,16.57
2019-02-23T05:34:02.489Z,16.47
2019-02-23T05:36:34.123Z,16.90
2019-02-23T05:39:07.572Z,18.90
2019-02-23T05:41:39.212Z,15.57
2019-02-23T05:44:10.920Z,16.73
2019-02-23T05:46:42.625Z,17.97
2019-02-23T05:49:14.460Z,16.00
2019-02-23T05:51:46.181Z,17.03
2019-02-23T05:54:17.771Z,15.13
2019-02-23T05:56:49.563Z,15.40
2019-02-23T05:59:21.200Z,20.03
2019-02-23T06:01:52.966Z,16.33
2019-02-23T06:04:24.679Z,16.87
2019-02-23T06:06:56.335Z,15.60
2019-02-23T06:09:28.079Z,15.70
2019-02-23T06:11:59.700Z,17.53
2019-02-23T06:14:31.903Z,16.20
2019-02-23T06:17:04.204Z,16.10
2019-02-23T06:19:36.342Z,17.73
2019-02-23T06:22:07.994Z,19.20
2019-02-23T06:24:39.731Z,19.93
2019-02-23T06:27:11.379Z,15.63
2019-02-23T06:29:43.157Z,19.93
2019-02-23T06:32:15.146Z,20.07
2019-02-23T06:34:46.814Z,17.83
2019-02-23T06:37:18.492Z,18.17
2019-02-23T06:39:50.137Z,21.13
2019-02-23T06:42:21.996Z,20.50
2019-02-23T06:44:54.131Z,41.27
2019-02-23T06:47:26.224Z,27.43
2019-02-23T06:49:57.898Z,30.10
2019-02-23T06:52:29.552Z,24.27
2019-02-23T06:55:01.238Z,27.87
2019-02-23T06:57:32.911Z,25.07
2019-02-23T07:00:05.009Z,25.73
2019-02-23T07:02:36.823Z,25.00
2019-02-23T07:05:10.127Z,22.23
2019-02-23T07:07:41.769Z,24.57
2019-02-23T07:10:13.843Z,20.57
2019-02-23T07:12:45.705Z,22.50
2019-02-23T07:15:17.757Z,20.67
2019-02-23T07:17:49.650Z,21.63
2019-02-23T07:20:21.378Z,22.13
2019-02-23T07:22:53.711Z,21.33
2019-02-23T07:25:25.419Z,21.57
2019-02-23T07:27:57.103Z,16.53
2019-02-23T07:30:28.806Z,16.57
2019-02-23T07:33:00.706Z,19.70
2019-02-23T07:35:32.375Z,19.97
2019-02-23T07:38:04.166Z,16.50
2019-02-23T07:40:35.955Z,20.47
2019-02-23T07:43:07.608Z,22.50
2019-02-23T07:45:39.265Z,22.90
2019-02-23T07:48:11.029Z,19.57
2019-02-23T07:50:42.867Z,19.93
2019-02-23T07:53:14.908Z,19.57
2019-02-23T07:55:46.635Z,18.67
2019-02-23T07:58:18.348Z,18.83
2019-02-23T08:00:50.321Z,18.60
2019-02-23T08:03:22.312Z,18.67
2019-02-23T08:05:53.963Z,19.33
2019-02-23T08:08:26.224Z,18.97
2019-02-23T08:10:58.318Z,19.90
2019-02-23T08:13:30.373Z,17.50
2019-02-23T08:16:02.170Z,20.80
2019-02-23T08:18:33.953Z,18.83
2019-02-23T08:21:05.625Z,22.00
2019-02-23T08:23:38.121Z,18.87
2019-02-23T08:26:10.906Z,19.00
2019-02-23T08:28:44.386Z,19.90
2019-02-23T08:31:16.303Z,19.87
2019-02-23T08:33:48.068Z,22.23
2019-02-23T08:36:20.099Z,15.53
2019-02-23T08:38:54.697Z,19.97
2019-02-23T08:41:26.420Z,21.00
2019-02-23T08:43:58.339Z,21.27
2019-02-23T08:46:30.358Z,18.27
2019-02-23T08:49:02.550Z,19.93
2019-02-23T08:51:36.198Z,19.70
2019-02-23T08:54:10.180Z,21.00
2019-02-23T08:56:41.891Z,23.37
2019-02-23T08:59:13.940Z,20.13
2019-02-23T09:01:45.775Z,19.30
2019-02-23T09:04:18.283Z,23.30
2019-02-23T09:06:50.381Z,19.97
2019-02-23T09:09:23.527Z,18.97
2019-02-23T09:11:56.767Z,21.20
2019-02-23T09:14:34.013Z,22.83
2019-02-23T09:17:05.934Z,20.20
2019-02-23T09:19:37.903Z,20.97
2019-02-23T09:22:10.038Z,19.50
2019-02-23T09:24:42.096Z,23.50
2019-02-23T09:27:13.782Z,19.00
2019-02-23T09:29:45.434Z,20.27
2019-02-23T09:32:17.562Z,21.77
2019-02-23T09:34:50.800Z,18.40
2019-02-23T09:37:22.734Z,18.10
2019-02-23T09:39:54.462Z,18.37
2019-02-23T09:42:27.738Z,19.53
2019-02-23T09:45:00.669Z,15.83
2019-02-23T09:47:32.801Z,16.73
2019-02-23T09:50:04.767Z,18.80
2019-02-23T09:52:36.881Z,17.63
2019-02-23T09:55:08.618Z,21.10
2019-02-23T09:57:40.504Z,19.77
2019-02-23T10:00:12.675Z,20.17
2019-02-23T10:02:44.565Z,22.23
2019-02-23T10:05:16.351Z,19.70
2019-02-23T10:07:48.136Z,22.10
2019-02-23T10:10:19.959Z,20.17
2019-02-23T10:12:52.934Z,18.23
2019-02-23T10:15:25.517Z,18.30
2019-02-23T10:17:57.473Z,19.43
2019-02-23T10:20:30.387Z,18.20
2019-02-23T10:23:02.178Z,18.77
2019-02-23T10:25:35.212Z,17.80
2019-02-23T10:28:06.943Z,20.43
2019-02-23T10:30:40.468Z,18.93
2019-02-23T10:33:12.447Z,18.00
2019-02-23T10:35:44.182Z,19.00
2019-02-23T10:38:16.078Z,19.83
2019-02-23T10:40:47.811Z,18.47
2019-02-23T10:43:19.524Z,18.10
2019-02-23T10:45:51.352Z,17.77
2019-02-23T10:48:24.932Z,16.87
2019-02-23T10:50:56.889Z,17.70
2019-02-23T10:53:32.848Z,17.67
2019-02-23T10:56:02.272Z,19.43
2019-02-23T10:58:33.915Z,15.03
2019-02-23T11:01:07.018Z,16.53
2019-02-23T11:03:39.164Z,15.50
2019-02-23T11:06:12.420Z,18.43
2019-02-23T11:08:44.118Z,15.53
2019-02-23T11:11:15.856Z,16.80
2019-02-23T11:13:47.531Z,16.30
2019-02-23T11:16:19.369Z,21.67
2019-02-23T11:18:51.047Z,15.37
2019-02-23T11:21:22.881Z,17.23
2019-02-23T11:23:55.308Z,16.93
2019-02-23T11:26:27.107Z,16.03
2019-02-23T11:28:58.772Z,17.63
2019-02-23T11:31:31.954Z,14.30
2019-02-23T11:34:03.631Z,17.73
2019-02-23T11:36:35.463Z,17.40
2019-02-23T11:39:07.751Z,18.27
2019-02-23T11:41:39.431Z,15.03
2019-02-23T11:44:11.075Z,20.13
2019-02-23T11:46:59.229Z,16.77
2019-02-23T11:49:16.343Z,14.77
2019-02-23T11:51:49.727Z,17.37
2019-02-23T11:54:21.473Z,18.40
2019-02-23T11:56:53.136Z,16.40
2019-02-23T11:59:24.943Z,15.67
2019-02-23T12:01:56.641Z,15.17
2019-02-23T12:04:30.002Z,14.70
2019-02-23T12:07:01.913Z,20.10
2019-02-23T12:09:33.584Z,16.37
2019-02-23T12:12:05.736Z,14.20
2019-02-23T12:14:37.493Z,12.70
2019-02-23T12:17:09.311Z,18.93
2019-02-23T12:19:41.094Z,13.73
2019-02-23T12:22:14.054Z,11.00
2019-02-23T12:24:47.535Z,19.70
2019-02-23T12:27:19.689Z,13.60
2019-02-23T12:29:51.946Z,15.50
2019-02-23T12:32:23.690Z,14.30
2019-02-23T12:34:55.530Z,15.50
2019-02-23T12:37:28.899Z,15.10
2019-02-23T12:40:03.016Z,14.37
2019-02-23T12:42:34.855Z,12.00
2019-02-23T12:45:06.933Z,14.37
2019-02-23T12:47:38.769Z,15.00
2019-02-23T12:50:10.619Z,12.43
2019-02-23T12:52:42.454Z,11.83
2019-02-23T12:55:15.146Z,14.53
2019-02-23T12:57:47.082Z,12.10
2019-02-23T13:00:18.972Z,10.43
2019-02-23T13:02:50.625Z,11.23
2019-02-23T13:05:22.555Z,10.30
2019-02-23T13:07:54.874Z,10.37
2019-02-23T13:10:27.231Z,13.33
2019-02-23T13:13:33.867Z,10.67
2019-02-23T13:16:37.952Z,10.97
2019-02-23T13:20:05.395Z,12.07
2019-02-23T13:23:27.501Z,16.63
2019-02-23T13:26:39.220Z,9.90
2019-02-23T13:30:08.241Z,10.33
2019-02-23T13:33:43.020Z,11.33
2019-02-23T13:37:04.893Z,7.27
2019-02-23T13:40:10.829Z,11.37
2019-02-23T13:43:44.492Z,9.80
2019-02-23T13:47:22.827Z,12.40
2019-02-23T13:51:09.673Z,10.60
2019-02-23T13:55:00.039Z,9.93
2019-02-23T13:58:21.919Z,6.53
2019-02-23T14:01:53.139Z,11.87
2019-02-23T14:05:24.233Z,7.67
2019-02-23T14:08:49.343Z,8.20
2019-02-23T14:12:24.092Z,8.53
2019-02-23T14:15:44.747Z,9.90
2019-02-23T14:18:53.516Z,5.80
2019-02-23T14:22:10.835Z,12.13
2019-02-23T14:25:43.714Z,10.53
2019-02-23T14:29:09.741Z,8.27
2019-02-23T14:32:41.564Z,7.73
2019-02-23T14:36:15.099Z,9.23
2019-02-23T14:39:44.701Z,9.20
2019-02-23T14:43:11.969Z,14.77
2019-02-23T14:46:41.078Z,21.30
2019-02-23T14:49:57.644Z,11.17
2019-02-23T14:53:38.464Z,8.00
2019-02-23T14:57:21.302Z,12.27
2019-02-23T15:00:46.150Z,12.77
2019-02-23T15:04:01.234Z,12.77
2019-02-23T15:07:06.559Z,9.90
2019-02-23T15:10:21.616Z,6.97
2019-02-23T15:13:48.043Z,12.20
2019-02-23T15:16:43.047Z,19.20
2019-02-23T15:20:16.580Z,8.90
2019-02-23T15:23:25.466Z,10.67
2019-02-23T15:26:51.508Z,6.50
2019-02-23T15:30:24.600Z,8.63
2019-02-23T15:33:54.004Z,8.30
2019-02-23T15:37:35.256Z,5.10
2019-02-23T15:41:12.286Z,7.60
2019-02-23T15:44:07.989Z,7.70
2019-02-23T15:47:41.899Z,13.37
2019-02-23T15:50:14.179Z,6.83
2019-02-23T15:52:45.939Z,7.30
2019-02-23T15:55:25.662Z,8.50
2019-02-23T15:57:51.074Z,9.77
2019-02-23T16:00:23.127Z,7.63
2019-02-23T16:02:55.008Z,7.77
2019-02-23T16:05:27.112Z,11.37
2019-02-23T16:07:59.089Z,7.40
2019-02-23T16:10:30.979Z,6.53
2019-02-23T16:13:03.752Z,6.63
2019-02-23T16:15:35.955Z,6.60
2019-02-23T16:18:08.418Z,8.67
2019-02-23T16:20:40.090Z,7.70
2019-02-23T16:23:12.013Z,7.43
2019-02-23T16:25:43.783Z,10.87
2019-02-23T16:28:15.660Z,10.50
2019-02-23T16:30:47.492Z,11.20
2019-02-23T16:33:19.781Z,6.93
2019-02-23T16:35:51.470Z,7.77
2019-02-23T16:38:23.184Z,6.77
2019-02-23T16:40:55.140Z,6.20
2019-02-23T16:43:27.293Z,6.10
2019-02-23T16:45:59.264Z,6.03
2019-02-23T16:48:31.330Z,6.40
2019-02-23T16:51:11.611Z,8.13
2019-02-23T16:53:43.325Z,6.27
2019-02-23T16:56:15.121Z,6.83
2019-02-23T16:58:46.848Z,5.30
2019-02-23T17:01:18.591Z,7.90
2019-02-23T17:03:50.663Z,6.60
2019-02-23T17:06:22.492Z,10.10
2019-02-23T17:08:54.299Z,7.27
2019-02-23T17:11:26.075Z,13.07
2019-02-23T17:13:57.963Z,7.27
2019-02-23T17:16:29.656Z,10.40
2019-02-23T17:19:01.877Z,10.53
2019-02-23T17:21:33.627Z,16.80
2019-02-23T17:24:07.661Z,9.20
2019-02-23T17:26:39.636Z,9.43
2019-02-23T17:29:11.433Z,8.63
2019-02-23T17:31:43.223Z,8.67
2019-02-23T17:34:15.700Z,16.90
2019-02-23T17:36:47.478Z,10.70
2019-02-23T17:39:19.433Z,11.23
2019-02-23T17:41:51.531Z,10.40
2019-02-23T17:44:23.676Z,9.33
2019-02-23T17:46:55.339Z,14.43
2019-02-23T17:49:27.787Z,16.07
2019-02-23T17:51:59.524Z,18.03
2019-02-23T17:54:31.360Z,17.00
2019-02-23T17:57:03.171Z,16.57
2019-02-23T17:59:34.968Z,12.00
2019-02-23T18:02:07.137Z,10.77
2019-02-23T18:04:39.828Z,12.80
2019-02-23T18:07:11.659Z,14.30
2019-02-23T18:09:43.462Z,14.07
2019-02-23T18:12:15.564Z,15.67
2019-02-23T18:14:47.873Z,17.10
2019-02-23T18:17:23.977Z,14.87
2019-02-23T18:19:57.082Z,13.50
2019-02-23T18:22:28.955Z,10.23
2019-02-23T18:25:00.804Z,10.93
2019-02-23T18:27:32.557Z,8.07
2019-02-23T18:30:10.683Z,7.03
2019-02-23T18:32:38.004Z,5.53
2019-02-23T18:35:10.471Z,8.43
2019-02-23T18:37:42.113Z,9.10
2019-02-23T18:40:14.067Z,12.93
2019-02-23T18:42:45.917Z,8.80
2019-02-23T18:45:17.737Z,7.30
2019-02-23T18:47:49.803Z,7.00
2019-02-23T18:50:21.822Z,7.03
2019-02-23T18:52:54.334Z,6.80
2019-02-23T18:55:26.313Z,6.50
2019-02-23T18:57:58.411Z,5.83
2019-02-23T19:00:31.120Z,6.80
2019-02-23T19:03:03.227Z,5.57
2019-02-23T19:05:35.054Z,5.70
2019-02-23T19:08:07.549Z,4.53
2019-02-23T19:10:39.300Z,5.57
2019-02-23T19:13:11.006Z,4.53
2019-02-23T19:15:42.821Z,5.00
2019-02-23T19:18:15.343Z,4.00
2019-02-23T19:20:47.490Z,4.57
2019-02-23T19:23:20.053Z,7.30
2019-02-23T19:25:51.769Z,6.50
2019-02-23T19:28:23.701Z,5.67
2019-02-23T19:30:55.857Z,7.27
2019-02-23T19:33:27.622Z,6.13
2019-02-23T19:35:59.479Z,6.30
2019-02-23T19:38:31.977Z,5.33
2019-02-23T19:41:03.612Z,4.73
2019-02-23T19:43:35.384Z,5.00
2019-02-23T19:46:07.362Z,6.00
2019-02-23T19:48:39.168Z,5.33
2019-02-23T19:51:11.605Z,5.50
2019-02-23T19:53:44.423Z,5.93
2019-02-23T19:56:16.204Z,5.37
2019-02-23T19:58:47.926Z,3.83
2019-02-23T20:01:19.786Z,6.13
2019-02-23T20:03:51.687Z,4.70
2019-02-23T20:06:23.384Z,5.33
2019-02-23T20:09:01.062Z,7.83
2019-02-23T20:11:33.787Z,3.37
2019-02-23T20:14:08.111Z,11.60
2019-02-23T20:16:39.795Z,4.13
2019-02-23T20:19:11.517Z,4.40
2019-02-23T20:21:43.414Z,4.33
2019-02-23T20:24:16.450Z,6.43
2019-02-23T20:26:55.477Z,9.03
2019-02-23T20:29:22.124Z,7.83
2019-02-23T20:31:54.165Z,8.87
2019-02-23T20:34:25.899Z,9.80
2019-02-23T20:36:57.785Z,7.57
2019-02-23T20:39:37.166Z,7.30
2019-02-23T20:42:08.872Z,6.93
2019-02-23T20:44:41.264Z,5.87
2019-02-23T20:47:17.273Z,6.30
2019-02-23T20:49:50.275Z,9.03
2019-02-23T20:52:25.106Z,7.73
2019-02-23T20:54:59.095Z,9.07
2019-02-23T20:57:35.219Z,9.53
2019-02-23T21:00:09.434Z,11.97
2019-02-23T21:02:42.159Z,16.87
2019-02-23T21:05:16.083Z,10.90
2019-02-23T21:07:48.087Z,7.60
2019-02-23T21:10:20.574Z,8.57
2019-02-23T21:12:52.298Z,7.57
2019-02-23T21:15:24.142Z,5.47
2019-02-23T21:17:58.532Z,7.60
2019-02-23T21:20:33.025Z,5.13
2019-02-23T21:23:06.330Z,4.47
2019-02-23T21:25:38.821Z,4.30
2019-02-23T21:28:10.557Z,5.83
2019-02-23T21:30:42.586Z,4.93
2019-02-23T21:33:14.970Z,7.03
2019-02-23T21:35:47.126Z,5.43
2019-02-23T21:38:18.829Z,5.00
2019-02-23T21:40:51.517Z,8.90
2019-02-23T21:43:23.516Z,8.30
2019-02-23T21:45:55.447Z,4.80
2019-02-23T21:48:27.231Z,7.47
2019-02-23T21:50:58.972Z,5.17
2019-02-23T21:53:31.103Z,6.43
2019-02-23T21:56:03.599Z,8.27
2019-02-23T21:58:35.498Z,8.80
2019-02-23T22:01:07.232Z,5.33
2019-02-23T22:03:39.110Z,5.40
2019-02-23T22:06:10.830Z,5.07
2019-02-23T22:08:43.001Z,5.83
2019-02-23T22:11:14.830Z,4.33
2019-02-23T22:13:47.453Z,6.37
2019-02-23T22:16:19.406Z,5.90
2019-02-23T22:18:51.780Z,4.07
2019-02-23T22:21:23.586Z,4.43
2019-02-23T22:23:55.375Z,5.50
2019-02-23T22:26:27.072Z,5.53
2019-02-23T22:28:59.389Z,6.53
2019-02-23T22:31:31.302Z,5.03
2019-02-23T22:34:04.444Z,8.90
2019-02-23T22:36:36.221Z,5.30
2019-02-23T22:39:08.684Z,7.47
2019-02-23T22:41:49.129Z,5.30
2019-02-23T22:44:16.942Z,7.50
2019-02-23T22:46:48.769Z,7.30
2019-02-23T22:49:20.468Z,5.20
2019-02-23T22:51:53.889Z,7.23
2019-02-23T22:54:25.688Z,5.37
2019-02-23T22:56:57.395Z,4.30
2019-02-23T22:59:29.704Z,5.83
2019-02-23T23:02:02.571Z,5.70
2019-02-23T23:04:36.072Z,4.43
2019-02-23T23:07:07.811Z,5.87
2019-02-23T23:09:39.647Z,5.43
2019-02-23T23:12:11.437Z,6.83
2019-02-23T23:14:43.753Z,4.87
2019-02-23T23:17:15.459Z,6.23
2019-02-23T23:19:47.181Z,4.60
2019-02-23T23:22:18.937Z,6.10
2019-02-23T23:24:51.589Z,5.83
2019-02-23T23:27:23.429Z,7.40
2019-02-23T23:29:55.814Z,7.67
2019-02-23T23:32:28.618Z,6.83
2019-02-23T23:35:00.363Z,12.87
2019-02-23T23:37:32.116Z,10.30
2019-02-23T23:40:05.425Z,9.87
2019-02-23T23:42:38.643Z,13.40
2019-02-23T23:45:11.225Z,9.37
2019-02-23T23:47:44.519Z,9.67
2019-02-23T23:50:16.182Z,16.63
2019-02-23T23:52:47.904Z,15.13
2019-02-23T23:55:20.670Z,7.93
2019-02-23T23:57:58.065Z,13.43
